Wirt, Minnesota
Current Conditions -  °F | °C
As of 6:13 PM on Sunday 23 Nov 2014 (Local Time) from KFOZ Reporting Station
Drizzle Drizzle  
Wind Chill: 36°   Ceiling: 1300
Heat Index: 36°   Visibility: 5mi
Dew Point: 34°   Wind: 0mph
Humidity: 93%   Direction: NA
Pressure: 29.39"   Gusts: NA
Location:  47.73°N, 93.96°W
Report Text: KFOZ 240013Z AUTO 00000KT 5SM DZ OVC013 02/01 A2939 RMK AO2
Loading
Personal Weather Stations






























Interactive Weather Map New forecast layout! Learn more

10-Day Weather Forecast

Advertisements
Track Severe Weather on mobile